Time;durP1;ratioP1;P1;durP2;ratioP2;P2;SDS_P1;SDS_P2;PMS_P1;PMS_P2;Temp;Humidity;BMP_temperature;BMP_pressure;BME280_temperature;BME280_humidity;BME280_pressure;Samples;Min_cycle;Max_cycle;Signal;HPM_P1;HPM_P2
2022/06/22 19:28:25;;;;;;;10.40;5.80;;;;;;;;;;4957008;28;20282;-71
2022/06/22 19:31:02;;;;;;;9.50;6.10;;;;;;;;;;4969999;28;20299;-71
2022/06/22 19:33:31;;;;;;;12.27;6.67;;;;;;;;;;4967451;28;20219;-70
2022/06/22 19:36:07;;;;;;;8.80;6.50;;;;;;;;;;4972043;28;20181;-71
2022/06/22 19:38:41;;;;;;;10.20;6.60;;;;;;;;;;4971223;28;20184;-71
2022/06/22 19:41:27;;;;;;;9.33;6.30;;;;;;;;;;4970500;28;20192;-72
2022/06/22 19:43:59;;;;;;;8.67;6.53;;;;;;;;;;4971645;28;20199;-72
2022/06/22 19:46:33;;;;;;;9.90;7.33;;;;;;;;;;4970556;28;20195;-72
2022/06/22 19:49:09;;;;;;;8.60;6.73;;;;;;;;;;4950768;28;20254;-72
2022/06/22 19:51:52;;;;;;;11.00;6.87;;;;;;;;;;4971043;28;20190;-72
2022/06/22 19:54:24;;;;;;;9.33;6.83;;;;;;;;;;4971086;28;20188;-69
2022/06/22 19:56:57;;;;;;;10.77;7.20;;;;;;;;;;4969533;28;20189;-70
2022/06/22 19:59:25;;;;;;;9.73;7.60;;;;;;;;;;4968908;28;20897;-69
2022/06/22 20:01:58;;;;;;;11.63;7.30;;;;;;;;;;4971513;28;20375;-70
2022/06/22 20:04:34;;;;;;;9.87;7.37;;;;;;;;;;4954476;28;20192;-69
2022/06/22 20:07:08;;;;;;;10.63;7.60;;;;;;;;;;4971981;28;20208;-69
2022/06/22 20:09:37;;;;;;;11.50;8.10;;;;;;;;;;4969705;28;20342;-69
2022/06/22 20:12:10;;;;;;;10.43;9.07;;;;;;;;;;4971054;28;20262;-68
2022/06/22 20:14:36;;;;;;;10.13;8.10;;;;;;;;;;4971476;28;20275;-69
2022/06/22 20:17:07;;;;;;;11.77;8.60;;;;;;;;;;4971783;28;20184;-68
2022/06/22 20:19:33;;;;;;;11.60;8.37;;;;;;;;;;4969187;28;20239;-68
2022/06/22 20:22:06;;;;;;;10.50;8.23;;;;;;;;;;4971134;28;20181;-69
2022/06/22 20:24:32;;;;;;;11.77;9.30;;;;;;;;;;4971757;28;20299;-70
2022/06/22 20:27:14;;;;;;;10.37;8.53;;;;;;;;;;4969638;28;20379;-68
2022/06/22 20:29:46;;;;;;;10.83;9.73;;;;;;;;;;4967868;28;20243;-68
2022/06/22 20:32:39;;;;;;;13.30;10.50;;;;;;;;;;4971353;28;20275;-69
2022/06/22 20:35:09;;;;;;;12.53;9.93;;;;;;;;;;4969930;28;20640;-69
2022/06/22 20:37:37;;;;;;;13.90;11.47;;;;;;;;;;4973577;28;20180;-68
2022/06/22 20:40:06;;;;;;;12.27;10.97;;;;;;;;;;4973478;28;20200;-69
2022/06/22 20:42:51;;;;;;;13.90;12.50;;;;;;;;;;4971684;28;20176;-69
2022/06/22 20:45:30;;;;;;;14.67;11.53;;;;;;;;;;4968719;28;20243;-68
2022/06/22 20:48:08;;;;;;;16.50;14.83;;;;;;;;;;4972732;28;20255;-68
2022/06/22 20:50:36;;;;;;;15.73;13.70;;;;;;;;;;4969979;28;20204;-68
2022/06/22 20:53:16;;;;;;;15.90;14.20;;;;;;;;;;4969261;28;20271;-69
2022/06/22 20:55:54;;;;;;;13.30;12.00;;;;;;;;;;4967839;28;20269;-69
2022/06/22 20:58:23;;;;;;;17.47;15.63;;;;;;;;;;4968419;28;20197;-69
2022/06/22 21:00:51;;;;;;;15.83;14.13;;;;;;;;;;4966125;28;20208;-69
2022/06/22 21:03:36;;;;;;;15.10;13.60;;;;;;;;;;4969200;28;20671;-68
2022/06/22 21:06:03;;;;;;;14.80;13.30;;;;;;;;;;4969084;28;20605;-69
2022/06/22 21:08:32;;;;;;;19.53;15.27;;;;;;;;;;4971167;28;20196;-69
2022/06/22 21:11:21;;;;;;;16.23;14.63;;;;;;;;;;4973702;28;20187;-69
2022/06/22 21:13:53;;;;;;;16.23;14.63;;;;;;;;;;4961745;28;20200;-69
2022/06/22 21:16:34;;;;;;;14.87;13.30;;;;;;;;;;4970779;28;20216;-69
2022/06/22 21:19:01;;;;;;;14.73;13.23;;;;;;;;;;4963773;28;20224;-69
2022/06/22 21:21:28;;;;;;;16.33;14.60;;;;;;;;;;4973363;28;20188;-69
2022/06/22 21:24:00;;;;;;;14.57;13.23;;;;;;;;;;4973732;28;20181;-69
2022/06/22 21:26:30;;;;;;;14.10;12.80;;;;;;;;;;4973763;28;20189;-69
2022/06/22 21:32:00;;;;;;;18.07;16.17;;;;;;;;;;4973518;28;20184;-69
2022/06/22 21:34:31;;;;;;;17.50;15.53;;;;;;;;;;4973681;28;20184;-69
2022/06/22 21:37:00;;;;;;;18.30;16.43;;;;;;;;;;4970778;28;20185;-69
2022/06/22 21:39:45;;;;;;;19.70;16.80;;;;;;;;;;4969458;28;20311;-69
2022/06/22 21:42:17;;;;;;;19.10;17.13;;;;;;;;;;4960618;28;20204;-69
2022/06/22 21:44:51;;;;;;;18.33;16.37;;;;;;;;;;4970695;28;20576;-69
2022/06/22 21:47:25;;;;;;;17.90;15.83;;;;;;;;;;4973515;28;20191;-70
2022/06/22 21:50:06;;;;;;;18.27;16.47;;;;;;;;;;4972679;28;20232;-69
2022/06/22 21:52:51;;;;;;;18.37;16.47;;;;;;;;;;4972167;28;20243;-69
2022/06/22 21:55:35;;;;;;;16.57;14.87;;;;;;;;;;4973061;28;20180;-69
2022/06/22 21:58:20;;;;;;;16.17;14.47;;;;;;;;;;4962795;28;20271;-68
2022/06/22 22:00:49;;;;;;;16.23;14.50;;;;;;;;;;4965562;28;20223;-68
2022/06/22 22:03:35;;;;;;;16.03;13.73;;;;;;;;;;4971043;28;20215;-69
2022/06/22 22:06:05;;;;;;;16.53;14.93;;;;;;;;;;4962931;28;20176;-69
2022/06/22 22:08:50;;;;;;;14.60;13.20;;;;;;;;;;4969022;28;20296;-68
2022/06/22 22:11:16;;;;;;;14.53;12.90;;;;;;;;;;4948679;28;20211;-69
2022/06/22 22:13:46;;;;;;;17.20;14.47;;;;;;;;;;4969569;28;20188;-69
2022/06/22 22:16:14;;;;;;;18.20;15.17;;;;;;;;;;4970810;28;20216;-69
2022/06/22 22:18:43;;;;;;;17.10;15.10;;;;;;;;;;4967781;28;20287;-69
2022/06/22 22:21:28;;;;;;;15.37;13.77;;;;;;;;;;4968701;28;20243;-69
2022/06/22 22:23:58;;;;;;;15.27;13.53;;;;;;;;;;4972891;28;20495;-69
2022/06/22 22:26:30;;;;;;;17.87;14.07;;;;;;;;;;4971596;28;20196;-69
2022/06/22 22:29:00;;;;;;;14.73;13.20;;;;;;;;;;4970620;28;20212;-69
2022/06/22 22:31:26;;;;;;;14.53;13.13;;;;;;;;;;4972076;28;20216;-69
2022/06/22 22:33:53;;;;;;;14.73;13.40;;;;;;;;;;4972540;28;20189;-69
2022/06/22 22:36:21;;;;;;;13.70;11.60;;;;;;;;;;4972292;28;20184;-69
2022/06/22 22:38:48;;;;;;;13.93;12.43;;;;;;;;;;4969761;28;20196;-69
2022/06/22 22:41:17;;;;;;;11.80;10.60;;;;;;;;;;4972292;28;20184;-69
2022/06/22 22:43:43;;;;;;;15.33;11.60;;;;;;;;;;4972338;28;20216;-68
2022/06/22 22:46:12;;;;;;;13.37;12.00;;;;;;;;;;4966025;28;20188;-69
2022/06/22 22:48:45;;;;;;;13.57;12.23;;;;;;;;;;4971744;28;20212;-67
2022/06/22 22:51:25;;;;;;;13.80;11.70;;;;;;;;;;4968488;28;20184;-68
2022/06/22 22:53:53;;;;;;;12.23;10.93;;;;;;;;;;4971696;28;20212;-68
2022/06/22 22:56:19;;;;;;;12.83;11.03;;;;;;;;;;4971916;28;20173;-68
2022/06/22 22:58:50;;;;;;;15.13;12.90;;;;;;;;;;4969339;28;20194;-68
2022/06/22 23:01:23;;;;;;;12.87;10.63;;;;;;;;;;4971584;28;20188;-68
2022/06/22 23:03:49;;;;;;;14.53;11.80;;;;;;;;;;4968043;28;20244;-67
2022/06/22 23:06:25;;;;;;;14.57;12.73;;;;;;;;;;4966850;28;20647;-68
2022/06/22 23:08:52;;;;;;;18.13;12.97;;;;;;;;;;4964673;28;20220;-68
2022/06/22 23:11:37;;;;;;;18.93;14.50;;;;;;;;;;4964548;28;20224;-68
2022/06/22 23:14:06;;;;;;;14.10;12.70;;;;;;;;;;4968352;28;20196;-67
2022/06/22 23:16:37;;;;;;;13.60;11.50;;;;;;;;;;4965877;28;20653;-67
2022/06/22 23:19:10;;;;;;;13.40;11.23;;;;;;;;;;4964859;28;20208;-68
2022/06/22 23:21:38;;;;;;;11.33;10.13;;;;;;;;;;4962200;28;20184;-67
2022/06/22 23:24:11;;;;;;;11.23;10.00;;;;;;;;;;4964282;28;20193;-68
2022/06/22 23:26:38;;;;;;;13.70;11.77;;;;;;;;;;4961433;28;20212;-67
2022/06/22 23:29:04;;;;;;;12.77;11.47;;;;;;;;;;4964242;28;20216;-69
2022/06/22 23:31:32;;;;;;;12.23;10.97;;;;;;;;;;4969570;28;20271;-68
2022/06/22 23:33:59;;;;;;;12.97;11.47;;;;;;;;;;4964996;28;20707;-67
2022/06/22 23:36:27;;;;;;;12.37;11.07;;;;;;;;;;4967115;28;20652;-67
2022/06/22 23:38:55;;;;;;;12.90;11.53;;;;;;;;;;4967716;28;20311;-67
2022/06/22 23:41:21;;;;;;;12.47;11.03;;;;;;;;;;4962689;28;20196;-67
2022/06/22 23:43:53;;;;;;;11.57;10.37;;;;;;;;;;4958090;28;20199;-68
2022/06/22 23:46:21;;;;;;;12.13;10.83;;;;;;;;;;4964325;28;20195;-67
2022/06/22 23:48:53;;;;;;;15.03;11.90;;;;;;;;;;4963433;28;20719;-67
2022/06/22 23:51:25;;;;;;;12.87;11.00;;;;;;;;;;4967678;28;20669;-68
2022/06/22 23:54:12;;;;;;;13.53;11.93;;;;;;;;;;4961165;28;20955;-67
2022/06/22 23:56:44;;;;;;;12.83;11.63;;;;;;;;;;4967702;28;20177;-67
2022/06/22 23:59:14;;;;;;;14.07;11.87;;;;;;;;;;4960514;28;20223;-67
